Time;durP1;ratioP1;P1;durP2;ratioP2;P2;SDS_P1;SDS_P2;PMS_P1;PMS_P2;Temp;Humidity;BMP_temperature;BMP_pressure;BME280_temperature;BME280_humidity;BME280_pressure;Samples;Min_cycle;Max_cycle;Signal;HPM_P1;HPM_P2
2021/01/22 00:02:23;;;;;;;2.87;1.23;;;4.30;99.90;;;;;;5088219;28;41973;-77
2021/01/22 00:04:51;;;;;;;1.63;0.43;;;4.30;99.90;;;;;;5092258;28;37126;-77
2021/01/22 00:07:18;;;;;;;6.30;0.60;;;4.30;99.90;;;;;;5087506;28;37236;-76
2021/01/22 00:09:44;;;;;;;2.23;0.30;;;4.30;99.90;;;;;;5065128;28;38374;-76
2021/01/22 00:12:10;;;;;;;3.07;0.40;;;4.30;99.90;;;;;;5077930;28;39132;-77
2021/01/22 00:14:39;;;;;;;2.33;0.40;;;4.30;99.90;;;;;;5080112;28;38453;-77
2021/01/22 00:17:05;;;;;;;1.97;0.27;;;4.30;99.90;;;;;;5082070;28;38291;-76
2021/01/22 00:19:31;;;;;;;3.13;0.20;;;4.30;99.90;;;;;;5087382;28;40706;-77
2021/01/22 00:21:57;;;;;;;2.47;0.40;;;4.30;99.90;;;;;;5068272;28;38323;-76
2021/01/22 00:24:23;;;;;;;2.00;0.20;;;4.40;99.90;;;;;;5074524;27;38895;-77
2021/01/22 00:26:49;;;;;;;2.93;0.37;;;4.40;99.90;;;;;;5090176;28;37298;-77
2021/01/22 00:29:15;;;;;;;2.00;0.23;;;4.40;99.90;;;;;;5071443;28;38523;-77
2021/01/22 00:31:42;;;;;;;1.37;0.37;;;4.40;99.90;;;;;;5075182;28;39190;-77
2021/01/22 00:34:08;;;;;;;0.53;0.30;;;4.40;99.90;;;;;;5058976;28;40952;-77
2021/01/22 00:36:34;;;;;;;1.20;0.40;;;4.40;99.90;;;;;;5079661;28;37860;-76
2021/01/22 00:39:00;;;;;;;1.33;0.40;;;4.40;99.90;;;;;;5101314;28;40285;-76
2021/01/22 00:41:26;;;;;;;1.87;0.40;;;4.30;99.90;;;;;;5088164;28;38812;-77
2021/01/22 00:43:52;;;;;;;2.60;0.50;;;4.30;99.90;;;;;;5075637;28;39776;-77
2021/01/22 00:46:18;;;;;;;4.00;1.20;;;4.30;99.90;;;;;;5084323;28;36941;-77
2021/01/22 00:48:44;;;;;;;2.10;0.47;;;4.30;99.90;;;;;;5095007;28;38740;-77
2021/01/22 00:51:10;;;;;;;2.63;0.60;;;4.30;99.90;;;;;;5092820;27;37307;-77
2021/01/22 00:53:39;;;;;;;0.50;0.30;;;4.30;99.90;;;;;;5084950;28;37384;-77
2021/01/22 00:56:06;;;;;;;1.90;0.33;;;4.30;99.90;;;;;;5086281;28;37325;-77
2021/01/22 00:58:33;;;;;;;4.77;0.30;;;4.30;99.90;;;;;;5089984;28;40868;-77
2021/01/22 01:00:59;;;;;;;2.47;0.20;;;4.30;99.90;;;;;;5069053;28;39551;-77
2021/01/22 01:03:25;;;;;;;2.87;0.50;;;4.30;99.90;;;;;;5079970;28;38128;-77
2021/01/22 01:05:51;;;;;;;1.50;0.40;;;4.30;99.90;;;;;;5057090;28;38157;-77
2021/01/22 01:08:18;;;;;;;4.27;0.97;;;4.40;99.90;;;;;;5071570;28;40833;-76
2021/01/22 01:10:44;;;;;;;2.00;0.27;;;4.40;99.90;;;;;;5079011;28;39361;-76
2021/01/22 01:13:10;;;;;;;1.80;0.20;;;4.40;99.90;;;;;;5089140;28;38239;-76
2021/01/22 01:15:36;;;;;;;1.23;0.40;;;4.40;99.90;;;;;;5078078;28;36563;-76
2021/01/22 01:18:03;;;;;;;5.17;0.40;;;4.40;99.90;;;;;;5086599;28;38708;-76
2021/01/22 01:20:31;;;;;;;3.53;0.50;;;4.40;99.90;;;;;;5077337;28;40356;-77
2021/01/22 01:22:58;;;;;;;2.67;0.37;;;4.40;99.90;;;;;;5075539;28;39127;-76
2021/01/22 01:25:24;;;;;;;2.53;0.60;;;4.40;99.90;;;;;;5088399;28;37923;-77
2021/01/22 01:27:50;;;;;;;3.97;0.70;;;4.40;99.90;;;;;;5087996;28;39594;-77
2021/01/22 01:30:17;;;;;;;1.10;0.33;;;4.40;99.90;;;;;;5079592;28;40749;-76
2021/01/22 01:32:43;;;;;;;3.03;0.47;;;4.40;99.90;;;;;;5081094;28;39260;-76
2021/01/22 01:35:10;;;;;;;6.07;0.67;;;4.40;99.90;;;;;;5075944;28;37345;-76
2021/01/22 01:37:36;;;;;;;3.63;0.33;;;4.40;99.90;;;;;;5085243;28;39309;-76
2021/01/22 01:40:04;;;;;;;3.20;0.40;;;4.40;99.90;;;;;;5089594;28;38650;-76
2021/01/22 01:42:30;;;;;;;2.70;0.50;;;4.30;99.90;;;;;;5075417;28;48539;-76
2021/01/22 01:44:56;;;;;;;4.33;0.30;;;4.40;99.90;;;;;;5085501;28;36793;-77
2021/01/22 01:47:22;;;;;;;1.67;0.33;;;4.40;99.90;;;;;;5084155;28;39242;-77
2021/01/22 01:49:48;;;;;;;5.23;0.70;;;4.40;99.90;;;;;;5087955;28;38806;-77
2021/01/22 01:52:15;;;;;;;2.37;0.40;;;4.40;99.90;;;;;;5083787;28;39002;-76
2021/01/22 01:54:42;;;;;;;3.30;0.50;;;4.50;99.90;;;;;;5074197;28;36731;-77
2021/01/22 01:57:09;;;;;;;1.00;0.50;;;4.50;99.90;;;;;;5078967;28;37894;-76
2021/01/22 01:59:35;;;;;;;6.23;0.60;;;4.50;99.90;;;;;;5098444;28;40511;-76
2021/01/22 02:02:02;;;;;;;1.83;0.40;;;4.50;99.90;;;;;;5083787;28;37919;-77
2021/01/22 02:04:28;;;;;;;3.93;0.50;;;4.60;99.90;;;;;;5088727;28;37838;-76
2021/01/22 02:06:54;;;;;;;3.53;0.50;;;4.60;99.90;;;;;;5104457;28;38656;-76
2021/01/22 02:09:20;;;;;;;1.90;0.40;;;4.60;99.90;;;;;;5105092;28;39682;-76
2021/01/22 02:11:48;;;;;;;3.27;0.40;;;4.60;99.90;;;;;;5110357;28;39557;-76
2021/01/22 02:14:14;;;;;;;3.63;0.47;;;4.60;99.90;;;;;;5088725;27;36079;-77
2021/01/22 02:16:40;;;;;;;1.97;0.30;;;4.50;99.90;;;;;;5108673;28;38894;-77
2021/01/22 02:19:09;;;;;;;2.93;0.40;;;4.50;99.90;;;;;;5092488;28;40795;-77
2021/01/22 02:21:37;;;;;;;3.87;0.40;;;4.50;99.90;;;;;;5087644;28;39013;-76
2021/01/22 02:24:15;;;;;;;1.40;0.40;;;4.40;99.90;;;;;;5078127;27;38896;-77
2021/01/22 02:26:57;;;;;;;4.27;0.63;;;4.30;99.90;;;;;;5102020;28;39840;-77
2021/01/22 02:29:25;;;;;;;2.90;0.30;;;4.30;99.90;;;;;;5083425;28;40283;-77
2021/01/22 02:31:54;;;;;;;3.10;0.53;;;4.30;99.90;;;;;;5096585;28;38539;-77
2021/01/22 02:34:26;;;;;;;1.37;0.40;;;4.30;99.90;;;;;;5083263;28;38939;-77
2021/01/22 02:36:57;;;;;;;2.13;0.60;;;4.30;99.90;;;;;;5090754;28;40546;-76
2021/01/22 02:39:26;;;;;;;4.13;1.20;;;4.40;99.90;;;;;;5091738;28;38918;-76
2021/01/22 02:41:57;;;;;;;5.23;0.83;;;4.50;99.90;;;;;;5092947;28;39394;-77
2021/01/22 02:44:24;;;;;;;5.73;0.60;;;4.50;99.90;;;;;;5100586;28;38884;-77
2021/01/22 02:46:51;;;;;;;7.23;1.50;;;4.40;99.90;;;;;;5098247;28;39146;-77
2021/01/22 02:49:17;;;;;;;8.57;0.90;;;4.50;99.90;;;;;;5075404;28;38385;-77
2021/01/22 02:51:45;;;;;;;5.30;1.00;;;4.50;99.90;;;;;;5059741;28;39704;-76
2021/01/22 02:54:12;;;;;;;7.03;1.00;;;4.50;99.90;;;;;;5076418;28;36358;-77
2021/01/22 02:56:51;;;;;;;9.13;1.43;;;4.60;99.90;;;;;;5083929;28;37661;-77
2021/01/22 02:59:25;;;;;;;8.57;1.20;;;4.70;99.90;;;;;;5074322;28;39275;-76
2021/01/22 03:02:17;;;;;;;8.13;1.10;;;4.60;99.90;;;;;;5075849;28;38273;-76
2021/01/22 03:04:44;;;;;;;8.35;0.82;;;4.60;99.90;;;;;;5065031;28;47351;-77
2021/01/22 03:07:14;;;;;;;7.13;0.77;;;4.50;99.90;;;;;;5073752;28;37470;-77
2021/01/22 03:09:45;;;;;;;7.60;2.20;;;4.50;99.90;;;;;;5066609;28;39684;-77
2021/01/22 03:12:12;;;;;;;7.17;0.80;;;4.40;99.90;;;;;;5059939;28;39716;-77
2021/01/22 03:14:40;;;;;;;8.80;0.80;;;4.40;99.90;;;;;;5098108;28;37163;-77
2021/01/22 03:17:06;;;;;;;11.40;1.27;;;4.40;99.90;;;;;;5087860;28;40091;-76
2021/01/22 03:19:46;;;;;;;7.57;1.20;;;4.40;99.90;;;;;;5082726;28;39921;-76
2021/01/22 03:22:13;;;;;;;8.33;1.30;;;4.40;99.90;;;;;;5072132;28;39933;-76
2021/01/22 03:24:40;;;;;;;10.97;1.43;;;4.40;99.90;;;;;;5090897;28;36931;-77
2021/01/22 03:27:06;;;;;;;5.97;1.83;;;4.30;99.90;;;;;;5088449;28;39576;-77
2021/01/22 03:29:35;;;;;;;11.53;1.67;;;4.30;99.90;;;;;;5075283;28;20118;-76
2021/01/22 03:32:03;;;;;;;9.63;1.13;;;4.30;99.90;;;;;;5077585;28;40541;-76
2021/01/22 03:34:29;;;;;;;9.20;1.73;;;4.20;99.90;;;;;;5074169;28;35780;-76
2021/01/22 03:36:56;;;;;;;16.93;1.83;;;4.20;99.90;;;;;;5068476;28;40819;-77
2021/01/22 03:39:23;;;;;;;11.00;2.13;;;4.10;99.90;;;;;;5093621;28;39252;-76
2021/01/22 03:41:50;;;;;;;8.37;1.57;;;4.10;99.90;;;;;;5065551;28;38972;-77
2021/01/22 03:44:16;;;;;;;8.83;1.93;;;4.10;99.90;;;;;;5063118;28;37964;-76
2021/01/22 03:46:43;;;;;;;9.30;2.03;;;4.10;99.90;;;;;;5075206;28;38591;-76
2021/01/22 03:49:10;;;;;;;12.80;2.10;;;4.10;99.90;;;;;;5072808;28;39183;-77
2021/01/22 03:51:37;;;;;;;13.67;2.60;;;4.10;99.90;;;;;;5086003;28;38012;-77
2021/01/22 03:54:04;;;;;;;11.20;2.10;;;4.10;99.90;;;;;;5088223;28;37525;-77
2021/01/22 03:56:33;;;;;;;16.40;2.40;;;4.10;99.90;;;;;;5083354;28;38128;-77
2021/01/22 03:58:59;;;;;;;15.83;2.40;;;4.00;99.90;;;;;;5093267;28;41012;-76
2021/01/22 04:01:28;;;;;;;14.83;2.67;;;4.00;99.90;;;;;;5095895;28;38541;-76
2021/01/22 04:03:54;;;;;;;12.90;2.40;;;4.00;99.90;;;;;;5090811;28;37071;-76
2021/01/22 04:06:20;;;;;;;12.03;2.80;;;4.00;99.90;;;;;;5072171;28;37751;-77
2021/01/22 04:08:46;;;;;;;18.93;3.03;;;4.00;99.90;;;;;;5072761;28;40015;-77
2021/01/22 04:11:12;;;;;;;17.13;3.23;;;3.90;99.90;;;;;;5088834;28;40553;-76
2021/01/22 04:13:39;;;;;;;9.17;2.83;;;4.00;99.90;;;;;;5090886;28;37186;-77
2021/01/22 04:16:06;;;;;;;11.43;2.87;;;4.10;99.90;;;;;;5083170;28;38932;-77
2021/01/22 04:18:32;;;;;;;12.80;2.37;;;4.10;99.90;;;;;;5066567;28;37496;-77
2021/01/22 04:20:58;;;;;;;14.17;2.40;;;4.10;99.90;;;;;;5081910;28;38091;-77
2021/01/22 04:23:24;;;;;;;20.87;3.10;;;4.10;99.90;;;;;;5090672;28;37204;-76
2021/01/22 04:25:50;;;;;;;13.00;2.60;;;4.10;99.90;;;;;;5090242;28;39606;-77
2021/01/22 04:28:16;;;;;;;16.87;2.80;;;4.10;99.90;;;;;;5096138;28;38932;-76
2021/01/22 04:30:42;;;;;;;10.57;2.50;;;4.00;99.90;;;;;;5079308;28;37849;-77
2021/01/22 04:33:08;;;;;;;8.60;2.23;;;3.90;99.90;;;;;;5089233;28;38819;-76
2021/01/22 04:35:35;;;;;;;17.53;3.77;;;3.80;99.90;;;;;;5077634;28;39794;-77
2021/01/22 04:38:01;;;;;;;21.00;3.63;;;3.80;99.90;;;;;;5086747;28;38747;-76
2021/01/22 04:40:27;;;;;;;17.83;3.67;;;3.70;99.90;;;;;;5076611;28;47172;-76
2021/01/22 04:42:53;;;;;;;14.07;3.20;;;3.60;99.90;;;;;;5089514;28;37129;-77
2021/01/22 04:45:19;;;;;;;10.50;3.40;;;3.50;99.90;;;;;;5075014;28;39691;-76
2021/01/22 04:47:45;;;;;;;20.33;4.53;;;3.50;99.90;;;;;;5079079;28;39727;-76
2021/01/22 04:50:16;;;;;;;14.30;4.53;;;3.50;99.90;;;;;;5086034;28;40480;-76
2021/01/22 04:52:44;;;;;;;16.57;5.27;;;3.50;99.90;;;;;;5073926;28;37885;-76
2021/01/22 04:55:15;;;;;;;15.20;4.73;;;3.50;99.90;;;;;;5085413;28;39455;-76
2021/01/22 04:57:43;;;;;;;13.77;5.03;;;3.50;99.90;;;;;;5095651;28;39131;-76
2021/01/22 05:00:12;;;;;;;17.00;5.60;;;3.40;99.90;;;;;;5092491;28;38256;-77
2021/01/22 05:02:38;;;;;;;18.63;5.70;;;3.40;99.90;;;;;;5090318;28;36640;-77
2021/01/22 05:05:07;;;;;;;21.90;5.00;;;3.30;99.90;;;;;;5098658;28;39085;-76
2021/01/22 05:07:34;;;;;;;16.73;6.50;;;3.50;99.90;;;;;;5094538;28;38332;-76
2021/01/22 05:10:00;;;;;;;22.47;6.20;;;3.40;99.90;;;;;;5094197;28;37659;-76
2021/01/22 05:12:36;;;;;;;18.20;5.33;;;3.50;99.90;;;;;;5090991;28;37853;-76
2021/01/22 05:15:16;;;;;;;16.63;5.60;;;3.50;99.90;;;;;;5076946;28;37725;-76
2021/01/22 05:17:58;;;;;;;18.60;5.10;;;3.40;99.90;;;;;;5096691;28;47618;-76
2021/01/22 05:20:31;;;;;;;19.98;7.15;;;3.50;99.90;;;;;;5078261;28;39378;-76
2021/01/22 05:22:58;;;;;;;15.00;5.07;;;3.50;99.90;;;;;;5094735;28;38867;-77
2021/01/22 05:25:25;;;;;;;15.13;5.50;;;3.50;99.90;;;;;;5076036;28;39161;-77
2021/01/22 05:27:55;;;;;;;22.83;5.50;;;3.40;99.90;;;;;;5085983;28;39662;-77
2021/01/22 05:30:31;;;;;;;14.93;4.03;;;3.40;99.90;;;;;;5093112;28;39453;-77
2021/01/22 05:33:16;;;;;;;15.17;4.60;;;3.40;99.90;;;;;;5095957;28;37064;-77
2021/01/22 05:35:43;;;;;;;21.70;4.43;;;3.30;99.90;;;;;;5089791;28;47759;-77
2021/01/22 05:38:10;;;;;;;12.67;3.83;;;3.30;99.90;;;;;;5083493;28;40284;-77
2021/01/22 05:40:36;;;;;;;9.97;3.73;;;3.30;99.90;;;;;;5095447;28;38651;-77
2021/01/22 05:43:02;;;;;;;21.03;3.43;;;3.30;99.90;;;;;;5062382;28;36754;-77
2021/01/22 05:45:47;;;;;;;13.47;2.07;;;3.30;99.90;;;;;;5072997;28;37716;-77
2021/01/22 05:48:24;;;;;;;16.33;2.40;;;3.30;99.90;;;;;;5092046;28;38289;-77
2021/01/22 05:50:58;;;;;;;14.40;3.03;;;3.30;99.90;;;;;;5080873;28;38618;-77
2021/01/22 05:53:25;;;;;;;10.60;2.57;;;3.20;99.90;;;;;;5077430;28;37069;-77
2021/01/22 05:56:09;;;;;;;15.43;2.43;;;3.10;99.90;;;;;;5089979;28;41911;-77
2021/01/22 05:58:37;;;;;;;11.47;2.13;;;3.10;99.90;;;;;;5096096;28;48743;-77
2021/01/22 06:01:15;;;;;;;12.03;3.13;;;3.10;99.90;;;;;;5084549;28;38419;-76
2021/01/22 06:03:43;;;;;;;8.23;3.00;;;3.10;99.90;;;;;;5073408;28;38115;-76
2021/01/22 06:06:10;;;;;;;20.67;6.37;;;3.20;99.90;;;;;;5092090;28;38533;-77
2021/01/22 06:08:57;;;;;;;18.30;5.40;;;3.30;99.90;;;;;;5080001;28;39528;-77
2021/01/22 06:11:28;;;;;;;15.53;6.20;;;3.40;99.90;;;;;;5081535;28;38824;-77
2021/01/22 06:14:09;;;;;;;19.30;6.77;;;3.40;99.90;;;;;;5086564;28;38145;-76
2021/01/22 06:16:36;;;;;;;15.57;6.47;;;3.40;99.90;;;;;;5088881;28;48880;-77
2021/01/22 06:19:05;;;;;;;18.87;7.00;;;3.30;99.90;;;;;;5087127;28;37468;-76
2021/01/22 06:21:38;;;;;;;27.10;9.93;;;3.30;99.90;;;;;;5078269;28;38310;-76
2021/01/22 06:24:06;;;;;;;22.13;8.43;;;3.30;99.90;;;;;;5073632;28;37760;-77
2021/01/22 06:26:36;;;;;;;17.53;8.87;;;3.30;99.90;;;;;;5080808;28;39002;-76
2021/01/22 06:29:04;;;;;;;19.00;9.47;;;3.30;99.90;;;;;;5082439;28;39953;-77
2021/01/22 06:31:31;;;;;;;21.13;9.97;;;3.30;99.90;;;;;;5072984;28;40378;-76
2021/01/22 06:33:58;;;;;;;17.70;10.07;;;3.10;99.90;;;;;;5087004;28;36553;-76
2021/01/22 06:36:25;;;;;;;25.73;9.73;;;3.10;99.90;;;;;;5077520;28;40932;-77
2021/01/22 06:38:52;;;;;;;18.63;10.77;;;3.00;99.90;;;;;;5082135;27;39337;-76
2021/01/22 06:41:25;;;;;;;18.37;9.43;;;2.90;99.90;;;;;;5088475;28;38558;-77
2021/01/22 06:43:52;;;;;;;26.95;10.63;;;2.90;99.90;;;;;;5074026;28;36288;-76
2021/01/22 06:46:20;;;;;;;18.60;10.00;;;2.80;99.90;;;;;;5096646;28;38963;-77
2021/01/22 06:48:57;;;;;;;24.30;9.37;;;2.80;99.90;;;;;;5085234;28;41630;-75
2021/01/22 06:51:25;;;;;;;30.27;12.70;;;2.90;99.90;;;;;;5072770;28;40183;-76
2021/01/22 06:54:04;;;;;;;23.23;10.40;;;2.80;99.90;;;;;;5068335;28;38037;-76
2021/01/22 06:56:31;;;;;;;25.80;11.77;;;2.70;99.90;;;;;;5076105;28;47007;-77
2021/01/22 06:59:20;;;;;;;21.37;9.33;;;2.70;99.90;;;;;;5089899;28;40072;-76
2021/01/22 07:01:47;;;;;;;21.07;9.10;;;2.70;99.90;;;;;;5077372;28;47263;-77
2021/01/22 07:04:37;;;;;;;19.00;8.57;;;2.60;99.90;;;;;;5070939;28;37871;-76
2021/01/22 07:07:07;;;;;;;21.20;11.13;;;2.50;99.90;;;;;;5066445;28;39985;-76
2021/01/22 07:09:48;;;;;;;20.30;8.43;;;2.50;99.90;;;;;;5092953;28;39419;-76
2021/01/22 07:12:34;;;;;;;20.13;7.30;;;2.60;99.90;;;;;;5090437;28;39410;-76
2021/01/22 07:15:00;;;;;;;13.67;7.10;;;2.80;99.90;;;;;;5055291;28;38114;-76
2021/01/22 07:17:28;;;;;;;21.03;7.83;;;2.70;99.90;;;;;;5074416;28;39488;-76
2021/01/22 07:20:12;;;;;;;16.10;7.03;;;2.90;99.90;;;;;;5071729;28;39460;-76
2021/01/22 07:22:59;;;;;;;16.60;6.47;;;2.90;99.90;;;;;;5075247;28;46688;-78
2021/01/22 07:25:35;;;;;;;18.77;7.23;;;3.00;99.90;;;;;;5080328;27;37013;-74
2021/01/22 07:28:20;;;;;;;20.17;6.87;;;2.90;99.90;;;;;;5077709;28;41149;-76
2021/01/22 07:30:46;;;;;;;13.30;6.60;;;2.80;99.90;;;;;;5080001;28;39273;-77
2021/01/22 07:33:34;;;;;;;16.57;7.27;;;2.90;99.90;;;;;;5063854;28;40039;-76
2021/01/22 07:36:10;;;;;;;17.10;6.83;;;2.90;99.90;;;;;;5081242;28;36537;-76
2021/01/22 07:38:40;;;;;;;18.90;7.10;;;2.80;99.90;;;;;;5077176;28;47228;-76
2021/01/22 07:41:08;;;;;;;20.17;9.57;;;2.80;99.90;;;;;;5096025;28;39562;-76
2021/01/22 07:43:35;;;;;;;24.07;9.30;;;2.70;99.90;;;;;;5070772;28;40559;-77
2021/01/22 07:46:09;;;;;;;21.50;8.03;;;2.70;99.90;;;;;;5075373;28;39029;-75
2021/01/22 07:48:36;;;;;;;29.63;8.53;;;2.80;99.90;;;;;;5085059;28;48149;-76
2021/01/22 07:51:38;;;;;;;12.80;6.87;;;2.80;99.90;;;;;;5074218;28;39352;-76
2021/01/22 07:54:04;;;;;;;16.27;7.70;;;2.90;99.90;;;;;;5069242;28;37616;-76
2021/01/22 07:56:38;;;;;;;26.37;8.57;;;2.80;99.90;;;;;;5085781;28;38110;-77
2021/01/22 07:59:06;;;;;;;23.20;9.97;;;2.80;99.90;;;;;;5080397;28;37461;-77
2021/01/22 08:01:32;;;;;;;23.03;8.83;;;2.90;99.90;;;;;;5067949;28;40026;-77
2021/01/22 08:03:58;;;;;;;15.63;7.47;;;2.80;99.90;;;;;;5087684;28;38384;-77
2021/01/22 08:06:24;;;;;;;16.00;6.63;;;2.90;99.90;;;;;;5090001;28;38397;-76
2021/01/22 08:09:13;;;;;;;20.30;7.40;;;2.90;99.90;;;;;;5083828;28;40332;-77
2021/01/22 08:11:40;;;;;;;21.30;9.10;;;2.90;99.90;;;;;;5076884;28;47562;-77
2021/01/22 08:14:07;;;;;;;20.80;7.50;;;2.80;99.90;;;;;;5091335;27;38427;-77
2021/01/22 08:16:34;;;;;;;17.00;6.83;;;2.80;99.90;;;;;;5081422;28;37901;-77
2021/01/22 08:19:00;;;;;;;20.17;8.23;;;2.90;99.90;;;;;;5084879;28;38539;-77
2021/01/22 08:21:31;;;;;;;17.47;7.60;;;2.90;99.90;;;;;;5088701;28;41641;-77
2021/01/22 08:23:58;;;;;;;19.27;6.63;;;2.80;99.90;;;;;;5079104;28;38489;-77
2021/01/22 08:26:28;;;;;;;13.50;6.03;;;2.90;99.90;;;;;;5073602;28;38327;-78
2021/01/22 08:28:55;;;;;;;20.77;8.07;;;2.90;99.90;;;;;;5083464;28;38594;-77
2021/01/22 08:31:22;;;;;;;23.77;8.27;;;2.90;99.90;;;;;;5053758;28;39879;-77
2021/01/22 08:33:48;;;;;;;24.13;8.43;;;2.90;99.90;;;;;;5077365;28;38408;-77
2021/01/22 08:36:15;;;;;;;19.70;6.67;;;2.90;99.90;;;;;;5092380;28;37551;-78
2021/01/22 08:38:41;;;;;;;18.17;6.63;;;3.00;99.90;;;;;;5080059;28;39913;-77
2021/01/22 08:41:07;;;;;;;26.93;8.17;;;3.00;99.90;;;;;;5078437;28;40460;-77
2021/01/22 08:43:54;;;;;;;25.00;6.90;;;3.00;99.90;;;;;;5088421;28;38622;-77
2021/01/22 08:46:22;;;;;;;20.03;7.20;;;3.10;99.90;;;;;;5081609;28;40236;-78
2021/01/22 08:48:48;;;;;;;20.37;6.90;;;3.10;99.90;;;;;;5072579;28;38622;-77
2021/01/22 08:51:25;;;;;;;15.30;5.70;;;3.20;99.90;;;;;;5070834;28;39643;-77
2021/01/22 08:53:55;;;;;;;19.90;5.80;;;3.20;99.90;;;;;;5065461;28;39308;-77
2021/01/22 08:56:22;;;;;;;29.27;7.60;;;3.20;99.90;;;;;;5062503;28;37868;-78
2021/01/22 08:59:06;;;;;;;19.47;7.10;;;3.30;99.90;;;;;;5083474;28;39331;-77
2021/01/22 09:01:52;;;;;;;20.17;5.57;;;3.30;99.90;;;;;;5072606;28;47345;-77
2021/01/22 09:04:23;;;;;;;14.50;6.67;;;3.40;99.90;;;;;;5081770;28;39520;-77
2021/01/22 09:07:05;;;;;;;25.03;9.63;;;3.40;99.90;;;;;;5085806;28;37744;-77
2021/01/22 09:09:41;;;;;;;23.73;10.48;;;3.40;99.90;;;;;;5079630;28;48627;-79
2021/01/22 09:12:28;;;;;;;24.33;12.43;;;3.40;99.90;;;;;;5076055;28;40654;-78
2021/01/22 09:14:57;;;;;;;23.80;10.80;;;3.40;99.90;;;;;;5076771;28;39501;-77
2021/01/22 09:17:36;;;;;;;20.93;10.40;;;3.40;99.90;;;;;;5083495;28;36954;-76
2021/01/22 09:20:07;;;;;;;21.47;11.07;;;3.40;99.90;;;;;;5082468;28;39928;-77
2021/01/22 09:22:34;;;;;;;27.60;12.03;;;3.40;99.90;;;;;;5098711;28;48905;-77
2021/01/22 09:25:02;;;;;;;29.10;11.97;;;3.50;99.90;;;;;;5084142;28;37481;-77
2021/01/22 09:27:28;;;;;;;24.20;12.80;;;3.50;99.90;;;;;;5079136;28;38002;-77
2021/01/22 09:29:55;;;;;;;26.93;14.77;;;3.50;99.90;;;;;;5092060;28;38907;-78
2021/01/22 09:32:21;;;;;;;29.60;14.77;;;3.50;99.90;;;;;;5087477;28;37153;-78
2021/01/22 09:34:47;;;;;;;25.40;14.23;;;3.50;99.90;;;;;;5092229;28;39539;-77
2021/01/22 09:37:14;;;;;;;23.80;14.93;;;3.50;99.90;;;;;;5099719;28;37841;-77
2021/01/22 09:39:40;;;;;;;34.60;15.27;;;3.60;99.90;;;;;;5079418;28;39373;-78
2021/01/22 09:42:06;;;;;;;27.60;14.37;;;3.70;99.90;;;;;;5069219;28;36519;-77
2021/01/22 09:44:32;;;;;;;37.03;14.17;;;3.80;99.90;;;;;;5073136;28;39451;-78
2021/01/22 09:46:59;;;;;;;26.27;13.97;;;3.90;99.90;;;;;;5070007;28;36159;-78
2021/01/22 09:49:25;;;;;;;31.00;14.87;;;4.00;99.90;;;;;;5071767;28;38113;-78
2021/01/22 09:51:51;;;;;;;26.20;11.97;;;4.10;99.90;;;;;;5075767;28;38695;-78
2021/01/22 09:54:17;;;;;;;28.40;12.83;;;4.10;99.90;;;;;;5084197;28;38379;-77
2021/01/22 09:56:44;;;;;;;26.67;11.83;;;4.20;99.90;;;;;;5096159;28;36294;-78
2021/01/22 09:59:10;;;;;;;20.27;11.00;;;4.20;99.90;;;;;;5081775;28;38883;-76
2021/01/22 10:01:36;;;;;;;21.23;9.77;;;4.20;99.90;;;;;;5058363;28;39499;-78
2021/01/22 10:04:03;;;;;;;16.77;11.40;;;4.30;99.90;;;;;;5074952;28;37432;-78
2021/01/22 10:06:29;;;;;;;19.37;11.50;;;4.40;99.90;;;;;;5090841;28;38950;-78
2021/01/22 10:08:55;;;;;;;26.03;10.67;;;4.50;99.90;;;;;;5078789;28;41513;-78
2021/01/22 10:11:21;;;;;;;20.97;10.57;;;4.60;99.90;;;;;;5064967;28;37719;-77
2021/01/22 10:13:54;;;;;;;19.23;10.47;;;4.70;99.90;;;;;;5088371;28;39382;-78
2021/01/22 10:16:25;;;;;;;23.90;11.03;;;4.80;99.90;;;;;;5093388;28;37629;-78
2021/01/22 10:18:52;;;;;;;23.90;10.20;;;4.90;99.90;;;;;;5085198;28;39805;-78
2021/01/22 10:21:20;;;;;;;24.97;9.17;;;5.00;99.90;;;;;;5063205;28;39063;-77
2021/01/22 10:23:48;;;;;;;18.37;8.43;;;5.00;99.90;;;;;;5072421;28;37726;-77
2021/01/22 10:26:16;;;;;;;19.13;8.60;;;5.00;99.90;;;;;;5078234;28;38064;-77
2021/01/22 10:28:43;;;;;;;23.80;9.10;;;5.10;99.90;;;;;;5070266;28;37913;-78
2021/01/22 10:31:10;;;;;;;22.03;10.57;;;5.20;99.90;;;;;;5083422;28;37982;-77
2021/01/22 10:33:36;;;;;;;27.87;8.80;;;5.40;99.90;;;;;;5059717;28;38344;-77
2021/01/22 10:36:04;;;;;;;20.63;8.03;;;5.50;99.90;;;;;;5076631;28;38215;-77
2021/01/22 10:38:31;;;;;;;18.67;8.00;;;5.60;99.90;;;;;;5075708;28;38799;-78
2021/01/22 10:40:57;;;;;;;21.23;8.60;;;5.60;99.90;;;;;;5077374;28;39691;-78
2021/01/22 10:43:24;;;;;;;19.63;7.50;;;5.60;99.90;;;;;;5076562;28;38057;-78
2021/01/22 10:45:50;;;;;;;20.77;7.33;;;5.70;99.90;;;;;;5083378;28;37578;-77
2021/01/22 10:48:17;;;;;;;23.07;6.73;;;5.70;99.90;;;;;;5057766;28;38144;-77
2021/01/22 10:50:44;;;;;;;16.80;6.00;;;5.80;99.90;;;;;;5052978;28;38011;-77
2021/01/22 10:53:11;;;;;;;22.43;6.47;;;5.90;99.90;;;;;;5049887;28;39649;-77
2021/01/22 10:55:37;;;;;;;17.30;6.03;;;5.90;99.90;;;;;;5054535;28;37402;-78
2021/01/22 10:58:03;;;;;;;23.23;5.70;;;5.80;99.90;;;;;;5066781;28;37745;-77
2021/01/22 11:00:29;;;;;;;15.03;4.50;;;5.80;99.90;;;;;;5077623;28;39184;-77
2021/01/22 11:02:56;;;;;;;16.70;3.70;;;5.80;99.90;;;;;;5081123;28;39155;-76
2021/01/22 11:05:25;;;;;;;15.33;4.53;;;5.80;99.90;;;;;;5056489;28;37382;-76
2021/01/22 11:07:51;;;;;;;12.07;4.23;;;5.80;99.90;;;;;;5073058;28;40313;-76
2021/01/22 11:10:20;;;;;;;12.63;4.80;;;5.80;99.90;;;;;;5074954;28;39731;-76
2021/01/22 11:12:47;;;;;;;28.73;4.93;;;5.80;99.90;;;;;;5061817;28;39142;-76
2021/01/22 11:15:14;;;;;;;15.47;4.57;;;5.80;99.90;;;;;;5062912;28;36870;-76
2021/01/22 11:17:40;;;;;;;15.70;4.17;;;5.80;99.90;;;;;;5062505;28;37754;-77
2021/01/22 11:20:07;;;;;;;15.37;4.40;;;5.80;99.90;;;;;;5056756;28;38625;-78
2021/01/22 11:22:34;;;;;;;16.57;4.87;;;5.80;99.90;;;;;;5074688;28;38754;-78
2021/01/22 11:25:00;;;;;;;11.87;4.47;;;5.90;99.90;;;;;;5080833;28;37612;-77
2021/01/22 11:27:26;;;;;;;11.83;4.80;;;5.90;99.90;;;;;;5083116;28;38791;-78
2021/01/22 11:29:53;;;;;;;14.93;4.17;;;6.00;99.90;;;;;;5092126;28;39402;-77
2021/01/22 11:32:19;;;;;;;14.17;4.47;;;6.10;99.90;;;;;;5087285;28;38357;-78
2021/01/22 11:34:46;;;;;;;14.43;4.40;;;6.20;99.90;;;;;;5095201;28;37770;-77
2021/01/22 11:37:12;;;;;;;11.87;4.40;;;6.30;99.90;;;;;;5101342;28;38181;-78
2021/01/22 11:39:38;;;;;;;18.63;4.97;;;6.40;99.90;;;;;;5093792;28;39218;-77
2021/01/22 11:42:06;;;;;;;18.70;4.80;;;6.40;99.90;;;;;;5084800;28;40315;-79
2021/01/22 11:44:34;;;;;;;13.40;4.50;;;6.50;99.90;;;;;;5078325;28;36260;-77
2021/01/22 11:47:01;;;;;;;17.03;4.50;;;6.60;99.90;;;;;;5092484;28;37915;-77
2021/01/22 11:49:27;;;;;;;10.67;4.63;;;6.70;99.90;;;;;;5075929;28;48636;-77
2021/01/22 11:51:53;;;;;;;15.57;4.33;;;6.70;99.90;;;;;;5087792;28;38827;-77
2021/01/22 11:54:19;;;;;;;11.47;4.37;;;6.70;99.90;;;;;;5102058;28;36982;-77
2021/01/22 11:56:47;;;;;;;14.63;4.10;;;6.60;99.90;;;;;;5093008;28;37075;-77
2021/01/22 11:59:13;;;;;;;22.27;4.53;;;6.60;99.90;;;;;;5090384;28;38530;-76
2021/01/22 12:01:39;;;;;;;16.83;4.80;;;6.60;99.90;;;;;;5059801;28;38503;-75
2021/01/22 12:04:05;;;;;;;17.47;4.63;;;6.70;99.90;;;;;;5070117;28;37567;-76
2021/01/22 12:06:31;;;;;;;17.23;4.77;;;6.70;99.90;;;;;;5070071;28;38932;-74
2021/01/22 12:08:58;;;;;;;11.90;4.77;;;6.80;99.90;;;;;;5089368;28;37665;-76
2021/01/22 12:11:24;;;;;;;10.23;4.27;;;6.70;99.90;;;;;;5084260;28;38520;-76
2021/01/22 12:13:50;;;;;;;21.33;4.87;;;6.60;99.90;;;;;;5072732;28;36162;-75
2021/01/22 12:16:17;;;;;;;15.33;4.47;;;6.60;99.90;;;;;;5091426;28;39285;-76
2021/01/22 12:18:43;;;;;;;17.60;4.93;;;6.60;99.90;;;;;;5077037;28;39246;-75
2021/01/22 12:21:10;;;;;;;17.60;4.47;;;6.50;99.90;;;;;;5089530;28;37412;-76
2021/01/22 12:23:36;;;;;;;10.07;3.73;;;6.50;99.90;;;;;;5061494;28;38916;-75
2021/01/22 12:26:03;;;;;;;16.80;4.40;;;6.40;99.90;;;;;;5070294;28;35658;-76
2021/01/22 12:28:29;;;;;;;16.70;4.73;;;6.60;99.90;;;;;;5063419;28;37810;-75
2021/01/22 12:30:55;;;;;;;15.90;4.23;;;6.70;99.90;;;;;;5085580;28;38225;-75
2021/01/22 12:33:21;;;;;;;13.87;4.50;;;6.70;99.90;;;;;;5087671;28;36260;-75
2021/01/22 12:35:49;;;;;;;18.27;4.20;;;6.70;99.90;;;;;;5090641;28;39327;-75
2021/01/22 12:38:17;;;;;;;16.03;4.40;;;6.70;99.90;;;;;;5087154;28;38921;-75
2021/01/22 12:40:43;;;;;;;16.83;4.00;;;6.70;99.90;;;;;;5082164;28;37741;-75
2021/01/22 12:43:10;;;;;;;13.17;4.50;;;6.70;99.90;;;;;;5079522;28;37545;-74
2021/01/22 12:45:36;;;;;;;8.50;3.57;;;6.70;99.90;;;;;;5091230;28;37195;-75
2021/01/22 12:48:04;;;;;;;13.87;4.60;;;6.70;99.90;;;;;;5078127;28;38630;-76
2021/01/22 12:50:31;;;;;;;19.77;4.73;;;6.60;99.90;;;;;;5076771;28;38757;-78
2021/01/22 12:52:58;;;;;;;9.73;3.90;;;6.60;99.90;;;;;;5071654;28;37023;-77
2021/01/22 12:55:24;;;;;;;21.43;4.93;;;6.60;99.90;;;;;;5063890;28;40455;-77
2021/01/22 12:57:50;;;;;;;12.47;4.13;;;6.60;99.90;;;;;;5067879;28;38597;-77